Time;durP1;ratioP1;P1;durP2;ratioP2;P2;SDS_P1;SDS_P2;PMS_P1;PMS_P2;Temp;Humidity;BMP_temperature;BMP_pressure;BME280_temperature;BME280_humidity;BME280_pressure;Samples;Min_cycle;Max_cycle;Signal;HPM_P1;HPM_P2
2023/10/25 00:02:20;;;;;;;9.80;6.47;;;10.50;99.90;;;;;;5029756;28;20041;-77
2023/10/25 00:05:08;;;;;;;9.20;6.93;;;10.50;99.90;;;;;;5044312;28;20037;-76
2023/10/25 00:07:54;;;;;;;10.25;7.30;;;10.50;99.90;;;;;;5045538;28;20068;-77
2023/10/25 00:10:40;;;;;;;11.02;7.65;;;10.40;99.90;;;;;;5023024;28;20049;-77
2023/10/25 00:13:25;;;;;;;10.65;7.88;;;10.50;99.90;;;;;;5050671;28;20340;-77
2023/10/25 00:16:13;;;;;;;8.68;6.88;;;10.50;99.90;;;;;;5023122;28;20029;-77
2023/10/25 00:19:00;;;;;;;10.93;7.83;;;10.50;99.90;;;;;;5038468;28;20080;-77
2023/10/25 00:21:46;;;;;;;10.10;7.40;;;10.50;99.90;;;;;;5037298;28;20042;-77
2023/10/25 00:24:32;;;;;;;10.10;7.15;;;10.50;99.90;;;;;;5024407;28;20673;-77
2023/10/25 00:27:18;;;;;;;8.82;7.07;;;10.50;99.90;;;;;;5035083;28;20065;-76
2023/10/25 00:30:04;;;;;;;10.00;6.90;;;10.50;99.90;;;;;;5042373;28;20036;-78
2023/10/25 00:32:50;;;;;;;11.30;8.02;;;10.50;99.90;;;;;;5040494;28;20425;-77
2023/10/25 00:35:36;;;;;;;10.98;8.30;;;10.50;99.90;;;;;;5032102;28;20065;-77
2023/10/25 00:38:22;;;;;;;12.25;6.95;;;10.40;99.90;;;;;;5004057;28;20045;-77
2023/10/25 00:41:08;;;;;;;10.27;7.25;;;10.40;99.90;;;;;;5029749;28;20120;-76
2023/10/25 00:43:54;;;;;;;9.80;6.43;;;10.40;99.90;;;;;;5040998;28;20120;-77
2023/10/25 00:46:40;;;;;;;9.73;6.45;;;10.40;99.90;;;;;;5037574;28;20030;-77
2023/10/25 00:49:26;;;;;;;8.40;6.90;;;10.40;99.90;;;;;;5021263;28;20410;-78
2023/10/25 00:52:12;;;;;;;10.38;6.93;;;10.40;99.90;;;;;;5036456;28;20059;-78
2023/10/25 00:54:59;;;;;;;9.52;7.30;;;10.50;99.90;;;;;;5036809;28;20124;-77
2023/10/25 00:57:44;;;;;;;10.93;7.13;;;10.40;99.90;;;;;;5021754;28;20038;-76
2023/10/25 01:00:31;;;;;;;12.88;7.80;;;10.40;99.90;;;;;;5015269;28;20038;-78
2023/10/25 01:03:18;;;;;;;10.25;7.63;;;10.40;99.90;;;;;;5014807;28;20100;-77
2023/10/25 01:06:04;;;;;;;12.00;7.30;;;10.40;99.90;;;;;;5005833;28;20081;-78
2023/10/25 01:08:51;;;;;;;11.68;7.55;;;10.40;99.90;;;;;;5036549;28;20052;-77
2023/10/25 01:11:37;;;;;;;11.18;7.28;;;10.40;99.90;;;;;;5041865;28;20116;-77
2023/10/25 01:14:27;;;;;;;10.07;7.63;;;10.40;99.90;;;;;;5022641;28;20048;-78
2023/10/25 01:17:13;;;;;;;12.52;7.80;;;10.40;99.90;;;;;;5021977;28;20494;-78
2023/10/25 01:19:59;;;;;;;10.65;7.18;;;10.40;99.90;;;;;;5036801;28;20040;-78
2023/10/25 01:22:47;;;;;;;11.05;6.53;;;10.40;99.90;;;;;;5027143;28;20051;-77
2023/10/25 01:25:33;;;;;;;9.52;6.95;;;10.40;99.90;;;;;;5036885;28;20046;-77
2023/10/25 01:28:21;;;;;;;7.70;6.60;;;10.40;99.90;;;;;;5043329;28;20373;-78
2023/10/25 01:31:07;;;;;;;10.70;7.13;;;10.30;99.90;;;;;;5019971;28;20037;-77
2023/10/25 01:33:53;;;;;;;9.63;6.32;;;10.30;99.90;;;;;;5010531;28;20033;-77
2023/10/25 01:36:39;;;;;;;10.45;6.38;;;10.20;99.90;;;;;;5019261;28;20046;-77
2023/10/25 01:39:25;;;;;;;9.70;6.43;;;10.30;99.90;;;;;;5027048;28;20474;-77
2023/10/25 01:42:11;;;;;;;8.38;6.20;;;10.30;99.90;;;;;;5016597;28;20048;-77
2023/10/25 01:44:57;;;;;;;9.73;6.22;;;10.30;99.90;;;;;;5035968;28;20120;-78
2023/10/25 01:47:43;;;;;;;10.23;5.95;;;10.30;99.90;;;;;;5034623;28;20053;-77
2023/10/25 01:50:29;;;;;;;8.95;6.75;;;10.20;99.90;;;;;;5007063;28;20052;-77
2023/10/25 01:53:15;;;;;;;9.52;6.57;;;10.30;99.90;;;;;;5035373;28;20048;-78
2023/10/25 01:56:01;;;;;;;10.82;7.32;;;10.30;99.90;;;;;;5036881;28;20094;-77
2023/10/25 01:58:47;;;;;;;10.18;7.05;;;10.20;99.90;;;;;;5032859;28;20041;-77
2023/10/25 02:01:33;;;;;;;8.00;6.28;;;10.30;99.90;;;;;;5037890;28;20053;-77
2023/10/25 02:04:19;;;;;;;9.35;6.70;;;10.30;99.90;;;;;;5035485;28;20047;-77
2023/10/25 02:07:05;;;;;;;11.18;6.97;;;10.40;99.90;;;;;;5020528;28;20124;-77
2023/10/25 02:09:51;;;;;;;10.52;6.28;;;10.40;99.90;;;;;;5022605;28;20045;-76
2023/10/25 02:12:37;;;;;;;11.43;7.05;;;10.40;99.90;;;;;;5022232;28;20109;-77
2023/10/25 02:15:22;;;;;;;10.77;8.20;;;10.40;99.90;;;;;;5052262;28;20370;-78
2023/10/25 02:18:08;;;;;;;10.32;7.28;;;10.40;99.90;;;;;;5028316;28;20056;-78
2023/10/25 02:20:54;;;;;;;10.88;7.57;;;10.40;99.90;;;;;;5012516;28;20053;-77
2023/10/25 02:23:42;;;;;;;11.38;7.30;;;10.40;99.90;;;;;;5045500;28;20049;-78
2023/10/25 02:26:28;;;;;;;14.48;7.68;;;10.40;99.90;;;;;;5039594;28;20044;-77
2023/10/25 02:29:14;;;;;;;13.90;7.72;;;10.40;99.90;;;;;;5038017;28;20041;-78
2023/10/25 02:32:01;;;;;;;14.90;8.25;;;10.40;99.90;;;;;;5042743;28;20068;-78
2023/10/25 02:34:47;;;;;;;13.98;7.88;;;10.50;99.90;;;;;;5032537;28;20041;-77
2023/10/25 02:37:33;;;;;;;13.80;7.95;;;10.40;99.90;;;;;;5059469;28;20045;-78
2023/10/25 02:40:19;;;;;;;14.43;8.15;;;10.40;99.90;;;;;;5032206;28;20841;-78
2023/10/25 02:43:06;;;;;;;14.77;7.35;;;10.40;99.90;;;;;;5018370;28;20473;-77
2023/10/25 02:45:52;;;;;;;12.23;7.23;;;10.40;99.90;;;;;;5016734;28;20048;-77
2023/10/25 02:48:39;;;;;;;12.48;7.25;;;10.40;99.90;;;;;;5030425;28;20326;-77
2023/10/25 02:51:25;;;;;;;12.23;7.93;;;10.40;99.90;;;;;;5033342;28;20124;-77
2023/10/25 02:54:14;;;;;;;12.73;7.35;;;10.40;99.90;;;;;;5034909;28;20718;-77
2023/10/25 02:57:00;;;;;;;12.38;7.63;;;10.40;99.90;;;;;;5037528;28;20136;-77
2023/10/25 02:59:52;;;;;;;9.93;6.15;;;10.50;99.90;;;;;;5031784;28;20124;-78
2023/10/25 03:02:41;;;;;;;14.82;6.78;;;10.50;99.90;;;;;;5033270;28;20077;-77
2023/10/25 03:05:27;;;;;;;11.55;7.32;;;10.50;99.90;;;;;;5027128;28;20127;-77
2023/10/25 03:08:13;;;;;;;10.35;6.78;;;10.50;99.90;;;;;;5053405;28;20079;-78
2023/10/25 03:10:58;;;;;;;11.32;6.93;;;10.50;99.90;;;;;;5039451;28;20068;-78
2023/10/25 03:13:44;;;;;;;13.82;6.82;;;10.50;99.90;;;;;;5021968;28;20068;-77
2023/10/25 03:16:30;;;;;;;10.23;6.57;;;10.50;99.90;;;;;;5026270;28;20106;-77
2023/10/25 03:19:16;;;;;;;10.43;6.50;;;10.50;99.90;;;;;;5038535;28;20049;-78
2023/10/25 03:22:03;;;;;;;12.27;6.90;;;10.50;99.90;;;;;;5007019;28;20180;-77
2023/10/25 03:24:49;;;;;;;10.68;6.55;;;10.40;99.90;;;;;;5055991;28;20056;-77
2023/10/25 03:27:35;;;;;;;13.32;6.80;;;10.40;99.90;;;;;;5052829;28;20041;-77
2023/10/25 03:30:20;;;;;;;11.77;6.07;;;10.30;99.90;;;;;;5022626;28;20041;-78
2023/10/25 03:33:06;;;;;;;13.93;6.70;;;10.30;99.90;;;;;;5025450;28;20374;-78
2023/10/25 03:35:53;;;;;;;13.75;6.20;;;10.30;99.90;;;;;;5046651;28;20092;-77
2023/10/25 03:38:39;;;;;;;13.35;6.45;;;10.20;99.90;;;;;;5032743;28;20095;-77
2023/10/25 03:41:25;;;;;;;9.77;6.72;;;10.20;99.90;;;;;;5037688;28;20048;-77
2023/10/25 03:44:12;;;;;;;11.65;7.57;;;10.20;99.90;;;;;;5032927;28;20033;-77
2023/10/25 03:46:58;;;;;;;13.52;8.00;;;10.10;99.90;;;;;;5037661;28;20041;-76
2023/10/25 03:49:45;;;;;;;14.20;7.60;;;10.10;99.90;;;;;;5054148;28;20094;-78
2023/10/25 03:52:31;;;;;;;12.23;7.22;;;10.10;99.90;;;;;;5027388;28;20033;-78
2023/10/25 03:55:17;;;;;;;11.25;6.57;;;10.00;99.90;;;;;;5025670;28;20124;-79
2023/10/25 03:58:03;;;;;;;12.05;7.70;;;10.00;99.90;;;;;;5026337;28;20056;-78
2023/10/25 04:00:59;;;;;;;10.27;7.18;;;10.00;99.90;;;;;;5043170;28;20067;-77
2023/10/25 04:03:45;;;;;;;10.85;6.60;;;10.00;99.90;;;;;;5038900;28;20120;-77
2023/10/25 04:06:31;;;;;;;11.50;7.85;;;10.00;99.90;;;;;;5021688;28;20426;-77
2023/10/25 04:09:17;;;;;;;12.10;6.55;;;10.00;99.90;;;;;;5051776;28;20045;-77
2023/10/25 04:12:03;;;;;;;9.02;6.22;;;10.00;99.90;;;;;;5037655;28;20413;-78
2023/10/25 04:14:49;;;;;;;10.57;7.20;;;10.00;99.90;;;;;;5036747;28;20478;-77
2023/10/25 04:17:36;;;;;;;11.07;7.20;;;10.00;99.90;;;;;;5065750;28;20045;-77
2023/10/25 04:20:22;;;;;;;8.52;6.22;;;9.90;99.90;;;;;;5035358;28;20052;-77
2023/10/25 04:23:07;;;;;;;11.15;6.82;;;9.90;99.90;;;;;;5023523;28;20115;-77
2023/10/25 04:26:05;;;;;;;10.68;6.75;;;9.90;99.90;;;;;;5031072;28;20048;-77
2023/10/25 04:28:51;;;;;;;9.20;6.37;;;10.00;99.90;;;;;;5024134;28;20101;-76
2023/10/25 04:31:37;;;;;;;9.77;6.78;;;10.00;99.90;;;;;;5035883;28;20056;-78
2023/10/25 04:34:23;;;;;;;9.45;6.32;;;10.00;99.90;;;;;;5024596;28;20116;-77
2023/10/25 04:37:09;;;;;;;8.93;6.78;;;10.00;99.90;;;;;;5052127;28;20037;-78
2023/10/25 04:39:55;;;;;;;11.13;7.07;;;10.00;99.90;;;;;;5032372;28;20041;-76
2023/10/25 04:42:41;;;;;;;9.75;7.05;;;10.00;99.90;;;;;;5037337;28;20524;-77
2023/10/25 04:45:28;;;;;;;11.18;7.00;;;10.00;99.90;;;;;;5026542;28;20653;-76
2023/10/25 04:48:15;;;;;;;12.13;7.22;;;9.90;99.90;;;;;;5047467;28;20492;-78
2023/10/25 04:51:03;;;;;;;10.10;6.38;;;10.00;99.90;;;;;;5036692;28;20091;-77
2023/10/25 04:53:49;;;;;;;;;;;10.00;99.90;;;;;;5036465;28;20036;-77
2023/10/25 04:56:34;;;;;;;8.15;6.53;;;9.90;99.90;;;;;;5056767;28;19999;-77
2023/10/25 04:59:21;;;;;;;10.70;7.15;;;9.90;99.90;;;;;;5021642;28;20049;-77
2023/10/25 05:02:06;;;;;;;10.15;6.13;;;9.90;99.90;;;;;;5030634;28;20084;-76
2023/10/25 05:04:52;;;;;;;9.48;7.00;;;9.90;99.90;;;;;;5049674;28;20044;-77
2023/10/25 05:07:39;;;;;;;10.95;7.22;;;9.90;99.90;;;;;;5036011;28;20055;-75
2023/10/25 05:10:25;;;;;;;11.40;7.72;;;10.00;99.90;;;;;;5037161;28;20048;-76
2023/10/25 05:13:13;;;;;;;9.45;7.15;;;9.90;99.90;;;;;;5001851;28;20037;-75
2023/10/25 05:15:59;;;;;;;10.65;6.95;;;10.00;99.90;;;;;;5002599;28;20033;-75
2023/10/25 05:18:45;;;;;;;13.02;7.28;;;10.00;99.90;;;;;;5012127;28;20038;-75
2023/10/25 05:21:31;;;;;;;10.10;6.28;;;10.00;99.90;;;;;;5037621;28;20041;-78
2023/10/25 05:24:18;;;;;;;9.73;7.30;;;9.90;99.90;;;;;;5035646;28;20178;-79
2023/10/25 05:27:04;;;;;;;13.02;7.10;;;9.90;99.90;;;;;;5021878;28;20056;-77
2023/10/25 05:29:50;;;;;;;11.13;6.82;;;9.90;99.90;;;;;;5018126;28;20034;-77
2023/10/25 05:32:37;;;;;;;12.73;6.97;;;9.90;99.90;;;;;;5032954;28;20045;-77
2023/10/25 05:35:23;;;;;;;12.02;7.22;;;9.90;99.90;;;;;;5022767;28;20491;-77
2023/10/25 05:38:09;;;;;;;12.23;7.03;;;9.80;99.90;;;;;;5019147;28;20469;-77
2023/10/25 05:40:55;;;;;;;11.77;7.65;;;9.90;99.90;;;;;;5035483;28;20043;-77
2023/10/25 05:43:41;;;;;;;10.43;6.88;;;9.90;99.90;;;;;;5041399;28;20045;-77
2023/10/25 05:46:27;;;;;;;9.98;6.82;;;9.80;99.90;;;;;;5049114;28;20038;-77
2023/10/25 05:49:13;;;;;;;10.20;5.53;;;9.90;99.90;;;;;;5036607;28;20045;-78
2023/10/25 05:52:00;;;;;;;10.30;6.25;;;9.80;99.90;;;;;;5069550;28;20065;-76
2023/10/25 05:54:46;;;;;;;10.43;6.07;;;9.80;99.90;;;;;;5046743;28;20030;-77
2023/10/25 05:57:33;;;;;;;13.43;5.88;;;9.80;99.90;;;;;;5049858;28;20055;-77
2023/10/25 06:00:19;;;;;;;14.70;6.72;;;9.80;99.90;;;;;;5016897;28;20399;-77
2023/10/25 06:03:06;;;;;;;9.63;5.68;;;9.80;99.90;;;;;;5043854;28;20079;-77
2023/10/25 06:05:52;;;;;;;10.85;6.25;;;9.80;99.90;;;;;;5052448;28;20037;-77
2023/10/25 06:08:38;;;;;;;9.85;6.63;;;9.80;99.90;;;;;;5022224;28;20045;-78
2023/10/25 06:11:24;;;;;;;9.63;6.03;;;9.70;99.90;;;;;;5022137;28;20470;-77
2023/10/25 06:14:10;;;;;;;9.82;6.20;;;9.70;99.90;;;;;;5034903;28;20072;-77
2023/10/25 06:16:58;;;;;;;8.63;5.95;;;9.70;99.90;;;;;;5036693;28;20527;-77
2023/10/25 06:19:44;;;;;;;9.57;5.30;;;9.70;99.90;;;;;;5031080;28;20041;-77
2023/10/25 06:22:30;;;;;;;9.82;5.57;;;9.70;99.90;;;;;;5016380;28;20026;-78
2023/10/25 06:25:16;;;;;;;10.77;5.90;;;9.60;99.90;;;;;;5027524;28;20045;-76
2023/10/25 06:28:02;;;;;;;8.65;5.68;;;9.60;99.90;;;;;;5014072;28;20740;-77
2023/10/25 06:30:48;;;;;;;9.02;5.15;;;9.60;99.90;;;;;;5015650;28;20117;-77
2023/10/25 06:33:34;;;;;;;7.97;5.88;;;9.60;99.90;;;;;;5033724;28;20037;-78
2023/10/25 06:36:20;;;;;;;7.25;5.68;;;9.60;99.90;;;;;;5036750;28;20044;-77
2023/10/25 06:39:07;;;;;;;10.57;5.50;;;9.60;99.90;;;;;;5021514;28;20141;-78
2023/10/25 06:41:53;;;;;;;13.32;6.22;;;9.70;99.90;;;;;;5021888;28;20117;-77
2023/10/25 06:44:40;;;;;;;11.57;5.80;;;9.70;99.90;;;;;;5036723;28;20144;-77
2023/10/25 06:47:27;;;;;;;10.07;5.97;;;9.70;99.90;;;;;;5022362;28;20048;-77
2023/10/25 06:50:14;;;;;;;9.52;6.03;;;9.70;99.90;;;;;;5041581;28;20124;-77
2023/10/25 06:53:00;;;;;;;11.20;5.32;;;9.70;99.90;;;;;;5035540;28;20038;-77
2023/10/25 06:55:46;;;;;;;12.43;6.03;;;9.70;99.90;;;;;;5034721;28;20033;-77
2023/10/25 06:58:33;;;;;;;12.25;5.88;;;9.70;99.90;;;;;;5050247;28;20110;-77
2023/10/25 07:01:20;;;;;;;14.60;6.15;;;9.70;99.90;;;;;;5010180;28;20473;-78
2023/10/25 07:04:06;;;;;;;8.93;5.47;;;9.70;99.90;;;;;;5034440;28;20533;-77
2023/10/25 07:06:53;;;;;;;8.13;5.50;;;9.70;99.90;;;;;;5053904;28;20045;-77
2023/10/25 07:09:41;;;;;;;8.75;5.25;;;9.70;99.90;;;;;;5054441;28;20037;-77
2023/10/25 07:12:31;;;;;;;9.95;5.47;;;9.70;99.90;;;;;;5017127;28;20471;-77
2023/10/25 07:15:19;;;;;;;7.18;5.38;;;9.70;99.90;;;;;;5028587;28;20433;-77
2023/10/25 07:18:05;;;;;;;10.30;4.80;;;9.70;99.90;;;;;;5029309;28;20045;-77
2023/10/25 07:20:52;;;;;;;10.60;5.57;;;9.70;99.90;;;;;;5037084;28;20555;-77
2023/10/25 07:23:38;;;;;;;7.55;5.18;;;9.70;99.90;;;;;;5033068;28;20377;-77
2023/10/25 07:26:24;;;;;;;11.10;4.57;;;9.70;99.90;;;;;;5047759;28;20045;-77
2023/10/25 07:29:12;;;;;;;10.20;4.90;;;9.80;99.90;;;;;;5022656;28;20095;-77
2023/10/25 07:31:58;;;;;;;8.13;4.67;;;9.80;99.90;;;;;;5033914;28;20073;-78
2023/10/25 07:34:44;;;;;;;7.85;4.45;;;9.80;99.90;;;;;;5035986;28;20304;-77
2023/10/25 07:37:30;;;;;;;10.38;4.72;;;9.80;99.90;;;;;;5028072;28;20650;-78
2023/10/25 07:40:16;;;;;;;7.25;4.50;;;9.90;99.90;;;;;;5054368;28;20108;-78
2023/10/25 07:43:02;;;;;;;8.30;4.80;;;9.90;99.90;;;;;;5030118;28;20076;-77
2023/10/25 07:45:49;;;;;;;9.75;4.75;;;10.00;99.90;;;;;;5038577;28;20037;-78
2023/10/25 07:48:36;;;;;;;8.57;4.83;;;10.00;99.90;;;;;;5036161;28;20049;-78
2023/10/25 07:51:24;;;;;;;11.10;5.10;;;10.00;99.90;;;;;;5005349;28;20068;-77
2023/10/25 07:54:10;;;;;;;7.13;3.97;;;10.10;99.90;;;;;;5011147;28;20065;-78
2023/10/25 07:56:56;;;;;;;9.57;5.47;;;10.10;99.90;;;;;;5049822;28;20029;-78
2023/10/25 07:59:42;;;;;;;8.60;5.00;;;10.10;99.90;;;;;;5058000;28;20360;-78
2023/10/25 08:02:28;;;;;;;6.45;4.80;;;10.20;99.90;;;;;;5046503;28;20037;-79
2023/10/25 08:05:14;;;;;;;8.65;5.20;;;10.20;99.90;;;;;;5036864;28;20072;-77
2023/10/25 08:08:00;;;;;;;14.10;5.93;;;10.30;99.90;;;;;;5017267;28;20049;-77
2023/10/25 08:10:46;;;;;;;18.55;9.65;;;10.30;99.90;;;;;;5044534;28;20100;-77
2023/10/25 08:13:34;;;;;;;17.15;9.50;;;10.40;99.90;;;;;;5068402;28;20036;-77
2023/10/25 08:16:20;;;;;;;14.48;8.00;;;10.40;99.90;;;;;;5021604;28;20037;-78
2023/10/25 08:19:07;;;;;;;8.10;5.03;;;10.50;99.90;;;;;;5036053;28;20064;-77
2023/10/25 08:21:53;;;;;;;8.40;5.20;;;10.50;99.90;;;;;;5037455;28;20072;-78
2023/10/25 08:24:39;;;;;;;10.02;5.28;;;10.60;99.90;;;;;;5042801;28;20530;-78
2023/10/25 08:27:24;;;;;;;7.53;4.82;;;10.60;99.90;;;;;;5035110;28;20057;-78
2023/10/25 08:30:11;;;;;;;8.57;5.05;;;10.70;99.90;;;;;;5031077;28;20068;-77
2023/10/25 08:32:57;;;;;;;9.00;4.90;;;10.80;99.90;;;;;;5048796;28;20037;-77
2023/10/25 08:35:43;;;;;;;14.32;5.40;;;10.90;99.90;;;;;;5034944;28;20033;-78
2023/10/25 08:38:29;;;;;;;9.07;5.18;;;11.00;99.90;;;;;;5042258;28;20044;-76
2023/10/25 08:41:17;;;;;;;9.65;6.00;;;11.00;99.90;;;;;;5034685;28;20148;-77
2023/10/25 08:44:04;;;;;;;9.57;5.93;;;11.10;99.90;;;;;;5043443;28;20033;-77
2023/10/25 08:46:49;;;;;;;11.63;5.35;;;11.10;99.90;;;;;;5053454;28;20045;-77
2023/10/25 08:49:36;;;;;;;9.38;5.40;;;11.10;99.90;;;;;;5034193;28;20041;-77
2023/10/25 08:52:24;;;;;;;9.90;5.07;;;11.10;99.90;;;;;;5042670;28;20102;-77
2023/10/25 08:55:10;;;;;;;;;;;11.20;99.90;;;;;;5017950;28;21168;-77
2023/10/25 08:57:56;;;;;;;8.32;5.10;;;11.20;99.90;;;;;;5041776;28;19909;-77
2023/10/25 09:00:42;;;;;;;14.77;5.90;;;11.20;99.90;;;;;;5054418;28;20044;-77
2023/10/25 09:03:31;;;;;;;12.00;6.05;;;11.30;99.90;;;;;;5034592;28;20076;-79
2023/10/25 09:06:24;;;;;;;9.10;5.25;;;11.30;99.90;;;;;;5049194;28;20246;-77
2023/10/25 09:09:10;;;;;;;8.55;5.10;;;11.40;99.90;;;;;;5035471;28;20041;-77
2023/10/25 09:11:56;;;;;;;10.30;6.68;;;11.50;99.90;;;;;;5034885;28;20630;-78
2023/10/25 09:14:46;;;;;;;8.60;6.00;;;11.60;99.90;;;;;;5025118;28;20445;-77
2023/10/25 09:17:32;;;;;;;11.85;6.85;;;11.80;99.90;;;;;;5042230;28;20049;-77
2023/10/25 09:20:26;;;;;;;12.88;6.65;;;11.80;99.90;;;;;;5052883;28;20400;-77
2023/10/25 09:23:15;;;;;;;8.45;5.65;;;11.90;99.90;;;;;;5024574;28;20323;-76
2023/10/25 09:26:15;;;;;;;10.63;5.38;;;12.00;99.90;;;;;;5046426;28;20055;-77
2023/10/25 09:29:01;;;;;;;11.20;6.38;;;12.10;99.90;;;;;;5029293;28;20369;-77
2023/10/25 09:31:48;;;;;;;10.48;5.70;;;12.20;99.90;;;;;;5034244;28;20037;-77
2023/10/25 09:34:35;;;;;;;8.20;4.95;;;12.30;99.90;;;;;;5032853;28;20765;-78
2023/10/25 09:37:23;;;;;;;8.93;4.90;;;12.40;99.90;;;;;;5023927;28;20104;-78
2023/10/25 09:40:13;;;;;;;8.60;4.07;;;12.50;99.90;;;;;;5017716;28;20497;-79
2023/10/25 09:42:59;;;;;;;6.85;3.65;;;12.70;99.90;;;;;;5011355;28;20037;-77
2023/10/25 09:45:51;;;;;;;7.70;3.55;;;12.90;99.90;;;;;;5020642;28;20052;-74
2023/10/25 09:48:40;;;;;;;6.63;3.30;;;13.00;99.90;;;;;;5008600;28;20045;-77
2023/10/25 09:51:51;;;;;;;5.13;2.47;;;13.20;99.90;;;;;;5022111;28;20049;-76
2023/10/25 09:54:42;;;;;;;6.18;2.70;;;13.30;99.90;;;;;;5027515;28;20052;-76
2023/10/25 09:57:30;;;;;;;6.78;2.83;;;13.50;99.90;;;;;;5033812;28;20192;-76
2023/10/25 10:00:17;;;;;;;6.75;3.08;;;13.60;99.90;;;;;;5017459;28;20111;-76
2023/10/25 10:03:09;;;;;;;6.45;2.20;;;13.70;99.90;;;;;;5013517;28;20462;-76
2023/10/25 10:06:21;;;;;;;9.05;2.50;;;14.00;99.90;;;;;;5020076;28;20385;-76
2023/10/25 10:09:26;;;;;;;7.30;2.00;;;14.20;99.90;;;;;;5024654;28;20098;-76
2023/10/25 10:12:14;;;;;;;8.50;1.95;;;14.40;99.90;;;;;;5022195;28;20656;-76
2023/10/25 10:15:01;;;;;;;4.37;1.60;;;14.70;99.90;;;;;;5017410;28;20037;-76
2023/10/25 10:17:47;;;;;;;5.25;1.48;;;14.90;99.90;;;;;;5013293;28;20037;-77
2023/10/25 10:20:34;;;;;;;3.10;1.42;;;15.00;99.90;;;;;;5032288;28;20045;-77
2023/10/25 10:23:21;;;;;;;5.78;1.63;;;15.20;99.90;;;;;;5029050;28;20037;-76
2023/10/25 10:26:08;;;;;;;5.30;1.17;;;15.40;99.90;;;;;;5012210;28;20455;-77
2023/10/25 10:28:55;;;;;;;5.73;1.30;;;15.60;99.90;;;;;;5030996;28;20045;-78
2023/10/25 10:31:58;;;;;;;3.38;1.30;;;15.60;99.90;;;;;;5025645;28;20430;-78
2023/10/25 10:34:56;;;;;;;4.75;1.50;;;15.90;99.90;;;;;;5039311;28;20033;-78
2023/10/25 10:37:54;;;;;;;3.38;1.30;;;16.10;99.90;;;;;;5014630;28;20038;-77
2023/10/25 10:40:41;;;;;;;5.25;1.60;;;16.50;99.90;;;;;;5036471;28;20065;-76
2023/10/25 10:43:27;;;;;;;4.43;1.10;;;16.70;99.90;;;;;;5004550;28;20045;-78
2023/10/25 10:46:13;;;;;;;5.00;1.30;;;16.90;99.90;;;;;;5023713;28;20042;-76
2023/10/25 10:49:01;;;;;;;5.05;1.25;;;17.10;99.90;;;;;;5030588;28;20416;-76
2023/10/25 10:51:50;;;;;;;3.38;1.10;;;17.20;99.90;;;;;;5046634;28;20390;-77
2023/10/25 10:54:37;;;;;;;5.85;1.20;;;17.40;99.90;;;;;;5015616;28;20038;-76
2023/10/25 10:57:25;;;;;;;6.50;1.35;;;17.20;99.90;;;;;;5052441;28;20535;-77
2023/10/25 11:00:13;;;;;;;2.88;1.20;;;17.60;99.90;;;;;;5033890;28;20143;-77
2023/10/25 11:03:02;;;;;;;3.63;1.08;;;18.00;99.90;;;;;;4999481;28;20052;-76
2023/10/25 11:05:49;;;;;;;3.78;0.90;;;18.30;99.90;;;;;;5021408;28;20068;-76
2023/10/25 11:08:36;;;;;;;2.42;1.05;;;18.20;99.90;;;;;;5017283;28;20074;-78
2023/10/25 11:11:22;;;;;;;3.97;1.02;;;18.40;99.90;;;;;;5030967;28;20092;-78
2023/10/25 11:14:08;;;;;;;3.63;1.17;;;18.50;99.90;;;;;;5035409;28;20042;-78
2023/10/25 11:16:56;;;;;;;6.20;1.38;;;18.60;99.90;;;;;;5018534;28;20118;-78
2023/10/25 11:19:47;;;;;;;3.92;0.90;;;18.70;99.90;;;;;;5034950;28;20041;-76
2023/10/25 11:22:36;;;;;;;3.40;1.00;;;18.40;99.90;;;;;;5034191;28;20049;-77
2023/10/25 11:25:27;;;;;;;4.90;1.02;;;18.40;99.90;;;;;;5034795;28;20405;-76
2023/10/25 11:28:15;;;;;;;7.72;1.00;;;18.80;99.90;;;;;;5038363;28;20582;-76
2023/10/25 11:31:02;;;;;;;3.00;0.90;;;19.10;99.90;;;;;;5032002;28;20469;-76
2023/10/25 11:33:48;;;;;;;4.80;1.10;;;19.30;99.90;;;;;;5037388;28;20095;-77
2023/10/25 11:36:34;;;;;;;4.07;0.90;;;19.20;99.90;;;;;;5020259;28;20490;-77
2023/10/25 11:39:20;;;;;;;7.82;1.33;;;19.20;99.90;;;;;;5001782;28;20073;-78
2023/10/25 11:42:08;;;;;;;4.10;1.10;;;19.20;99.90;;;;;;5017898;28;20057;-77
2023/10/25 11:44:55;;;;;;;5.43;1.27;;;19.10;99.90;;;;;;4991024;28;20038;-78
2023/10/25 11:47:41;;;;;;;6.95;1.00;;;19.10;99.90;;;;;;5002137;28;20053;-77
2023/10/25 11:50:28;;;;;;;4.90;0.95;;;19.20;99.90;;;;;;5000839;28;20045;-77
2023/10/25 11:53:15;;;;;;;2.87;0.90;;;19.20;99.20;;;;;;5011500;28;20718;-76
2023/10/25 11:56:01;;;;;;;5.00;1.73;;;19.40;99.50;;;;;;4999165;28;20466;-77
2023/10/25 11:58:48;;;;;;;5.13;1.00;;;19.60;99.60;;;;;;4997278;28;20269;-76
2023/10/25 12:01:34;;;;;;;6.00;1.45;;;19.80;99.50;;;;;;5010488;28;20053;-77
2023/10/25 12:04:20;;;;;;;2.80;1.10;;;19.70;99.30;;;;;;5012616;28;20386;-77
2023/10/25 12:07:10;;;;;;;3.13;0.88;;;19.70;99.40;;;;;;4997486;28;20046;-78
2023/10/25 12:09:57;;;;;;;4.32;1.08;;;19.60;99.00;;;;;;5017065;28;20378;-77
2023/10/25 12:12:43;;;;;;;5.23;1.10;;;19.70;99.60;;;;;;4986197;28;20033;-76
2023/10/25 12:15:29;;;;;;;3.60;0.98;;;19.50;99.40;;;;;;5016439;28;20273;-77
2023/10/25 12:18:17;;;;;;;4.72;1.05;;;19.60;99.30;;;;;;4995302;28;20517;-77
2023/10/25 12:21:03;;;;;;;5.28;0.85;;;19.50;98.20;;;;;;4996247;28;20348;-77
2023/10/25 12:23:49;;;;;;;3.53;1.05;;;19.60;98.90;;;;;;5035447;28;20041;-76
2023/10/25 12:26:36;;;;;;;5.90;1.00;;;19.70;98.90;;;;;;5011155;28;20050;-75
2023/10/25 12:29:24;;;;;;;5.18;1.27;;;20.00;99.40;;;;;;5003605;28;20045;-76
2023/10/25 12:32:10;;;;;;;6.80;1.00;;;20.20;98.40;;;;;;5001205;28;20041;-76
2023/10/25 12:34:56;;;;;;;4.88;1.13;;;20.50;98.20;;;;;;5029303;28;20083;-75
2023/10/25 12:37:42;;;;;;;5.65;1.20;;;20.60;97.60;;;;;;4990180;28;20064;-76
2023/10/25 12:40:29;;;;;;;8.95;1.50;;;20.90;97.00;;;;;;4985710;28;20053;-77
2023/10/25 12:43:16;;;;;;;6.60;1.30;;;21.10;97.20;;;;;;4999849;28;20041;-76
2023/10/25 12:46:04;;;;;;;5.10;1.07;;;21.50;97.00;;;;;;4997960;28;20737;-75
2023/10/25 12:48:50;;;;;;;4.05;0.98;;;21.60;96.50;;;;;;5014420;28;20119;-76
2023/10/25 12:51:37;;;;;;;5.60;1.25;;;21.30;96.90;;;;;;4997332;28;20376;-77
2023/10/25 12:54:25;;;;;;;5.13;0.90;;;20.70;96.70;;;;;;4999862;28;20471;-75
2023/10/25 12:57:13;;;;;;;2.63;0.90;;;20.20;97.30;;;;;;5002461;28;20095;-78
2023/10/25 13:00:00;;;;;;;4.28;0.90;;;19.80;97.80;;;;;;5013340;28;20076;-77
2023/10/25 13:02:47;;;;;;;2.75;0.73;;;19.40;98.20;;;;;;5011182;28;20042;-76
2023/10/25 13:05:34;;;;;;;6.22;0.80;;;18.90;98.50;;;;;;4999512;28;20115;-76
2023/10/25 13:08:21;;;;;;;4.00;0.97;;;18.50;98.70;;;;;;4995899;28;20046;-76
2023/10/25 13:11:07;;;;;;;5.15;1.30;;;18.20;99.40;;;;;;4997489;28;20772;-77
2023/10/25 13:13:55;;;;;;;4.93;0.90;;;18.00;99.40;;;;;;4980896;28;20034;-76
2023/10/25 13:16:42;;;;;;;4.95;1.23;;;17.80;99.80;;;;;;4985058;28;20053;-76
2023/10/25 13:19:29;;;;;;;4.03;1.08;;;17.60;99.90;;;;;;4994788;28;20060;-76
2023/10/25 13:22:16;;;;;;;2.93;1.07;;;17.50;99.90;;;;;;4985636;28;20109;-78
2023/10/25 13:25:03;;;;;;;2.97;1.48;;;17.30;99.90;;;;;;5000250;28;20068;-76
2023/10/25 13:27:49;;;;;;;3.60;0.85;;;17.20;99.90;;;;;;4996976;28;20611;-76
2023/10/25 13:30:37;;;;;;;2.80;1.10;;;17.10;99.90;;;;;;5000026;28;20041;-77
2023/10/25 13:33:24;;;;;;;5.22;1.60;;;16.70;99.90;;;;;;4986836;28;20057;-76
2023/10/25 13:36:10;;;;;;;5.47;1.40;;;16.30;99.90;;;;;;4999872;28;20683;-76
2023/10/25 13:38:56;;;;;;;3.50;1.15;;;16.10;99.90;;;;;;5002978;28;20334;-76
2023/10/25 13:41:42;;;;;;;3.83;1.63;;;16.10;99.90;;;;;;5000661;28;20430;-76
2023/10/25 13:44:28;;;;;;;5.40;1.77;;;15.90;99.90;;;;;;4980813;28;20045;-75
2023/10/25 13:47:14;;;;;;;5.97;1.25;;;15.50;99.90;;;;;;5004396;28;20076;-75
2023/10/25 13:50:01;;;;;;;4.68;1.60;;;15.30;99.90;;;;;;5008786;28;20095;-75
2023/10/25 13:52:48;;;;;;;5.45;1.55;;;15.20;99.90;;;;;;4996586;28;20042;-75
2023/10/25 13:55:40;;;;;;;2.17;1.10;;;15.00;99.90;;;;;;5000779;28;20512;-75
2023/10/25 13:58:26;;;;;;;6.00;1.42;;;14.90;99.90;;;;;;4988754;28;20490;-75
2023/10/25 14:01:12;;;;;;;3.75;1.45;;;14.90;99.90;;;;;;5011343;28;20038;-75
2023/10/25 14:03:58;;;;;;;6.07;1.27;;;15.00;99.90;;;;;;5013139;28;20045;-76
2023/10/25 14:06:44;;;;;;;6.93;1.45;;;14.90;99.90;;;;;;4993231;28;20046;-75
2023/10/25 14:09:30;;;;;;;4.43;1.42;;;14.80;99.90;;;;;;4997834;28;20669;-75
2023/10/25 14:12:16;;;;;;;4.00;1.25;;;14.80;99.90;;;;;;5000205;28;20034;-75
2023/10/25 14:15:04;;;;;;;3.97;1.30;;;14.80;99.90;;;;;;4998043;28;20046;-75
2023/10/25 14:17:50;;;;;;;6.85;1.30;;;14.80;99.90;;;;;;4979697;28;20053;-75
2023/10/25 14:20:41;;;;;;;4.93;1.35;;;14.80;99.90;;;;;;4973224;28;20387;-75
2023/10/25 14:23:27;;;;;;;3.78;1.33;;;14.40;99.90;;;;;;5016046;28;20048;-76
2023/10/25 14:26:14;;;;;;;6.78;1.15;;;14.40;99.90;;;;;;5001678;28;20045;-75
2023/10/25 14:29:00;;;;;;;6.88;1.75;;;14.20;99.90;;;;;;5014775;28;20050;-76